地図

経路データ

SID SEASON NUMBER BASIN SUBBASIN NAME ISO_TIME NATURE LAT LON WMO_WIND WMO_PRES WMO_AGENCY TRACK_TYPE DIST2LAND LANDFALL IFLAG USA_AGENCY USA_ATCF_ID USA_LAT USA_LON USA_RECORD USA_STATUS USA_WIND USA_PRES USA_SSHS USA_R34_NE USA_R34_SE USA_R34_SW USA_R34_NW USA_R50_NE USA_R50_SE USA_R50_SW USA_R50_NW USA_R64_NE USA_R64_SE USA_R64_SW USA_R64_NW USA_POCI USA_ROCI USA_RMW USA_EYE TOKYO_LAT TOKYO_LON TOKYO_GRADE TOKYO_WIND TOKYO_PRES TOKYO_R50_DIR TOKYO_R50_LONG TOKYO_R50_SHORT TOKYO_R30_DIR TOKYO_R30_LONG TOKYO_R30_SHORT TOKYO_LAND CMA_LAT CMA_LON CMA_CAT CMA_WIND CMA_PRES HKO_LAT HKO_LON HKO_CAT HKO_WIND HKO_PRES NEWDELHI_LAT NEWDELHI_LON NEWDELHI_GRADE NEWDELHI_WIND NEWDELHI_PRES NEWDELHI_CI NEWDELHI_DP NEWDELHI_POCI REUNION_LAT REUNION_LON REUNION_TYPE REUNION_WIND REUNION_PRES REUNION_TNUM REUNION_CI REUNION_RMW REUNION_R34_NE REUNION_R34_SE REUNION_R34_SW REUNION_R34_NW REUNION_R50_NE REUNION_R50_SE REUNION_R50_SW REUNION_R50_NW REUNION_R64_NE REUNION_R64_SE REUNION_R64_SW REUNION_R64_NW BOM_LAT BOM_LON BOM_TYPE BOM_WIND BOM_PRES BOM_TNUM BOM_CI BOM_RMW BOM_R34_NE BOM_R34_SE BOM_R34_SW BOM_R34_NW BOM_R50_NE BOM_R50_SE BOM_R50_SW BOM_R50_NW BOM_R64_NE BOM_R64_SE BOM_R64_SW BOM_R64_NW BOM_ROCI BOM_POCI BOM_EYE BOM_POS_METHOD BOM_PRES_METHOD NADI_LAT NADI_LON NADI_CAT NADI_WIND NADI_PRES WELLINGTON_LAT WELLINGTON_LON WELLINGTON_WIND WELLINGTON_PRES DS824_LAT DS824_LON DS824_STAGE DS824_WIND DS824_PRES TD9636_LAT TD9636_LON TD9636_STAGE TD9636_WIND TD9636_PRES TD9635_LAT TD9635_LON TD9635_WIND TD9635_PRES TD9635_ROCI NEUMANN_LAT NEUMANN_LON NEUMANN_CLASS NEUMANN_WIND NEUMANN_PRES MLC_LAT MLC_LON MLC_CLASS MLC_WIND MLC_PRES USA_GUST BOM_GUST BOM_GUST_PER REUNION_GUST REUNION_GUST_PER USA_SEAHGT USA_SEARAD_NE USA_SEARAD_SE USA_SEARAD_SW USA_SEARAD_NW STORM_SPEED STORM_DIR
2008319S07086 2009 91 SI MM BERNARD 2008-11-13 12:00:00 TS -7.20000 86.3000 20 1006 reunion main 1521 1521 _____O________ -1 -7.20000 86.3000 2 20 1006 1.00000 1.00000 9 9 250
2008319S07086 2009 91 SI MM BERNARD 2008-11-13 15:00:00 TS -7.34756 85.8975 main 1562 1562 _____P________ -1 -7.34756 85.8975 2 20 1006 9 249
2008319S07086 2009 91 SI MM BERNARD 2008-11-13 18:00:00 TS -7.50000 85.5000 20 1006 reunion main 1597 1593 _____O________ -1 -7.50000 85.5000 2 20 1006 1.00000 1.00000 9 8 248
2008319S07086 2009 91 SI MM BERNARD 2008-11-13 21:00:00 TS -7.65750 85.1200 main 1603 1597 _____P________ -1 -7.65750 85.1200 2 20 1005 8 247
2008319S07086 2009 91 SI MM BERNARD 2008-11-14 00:00:00 TS -7.80000 84.8000 20 1005 reunion main 1604 1601 _____O________ -1 -7.80000 84.8000 2 20 1005 1.50000 1.50000 9 6 244
2008319S07086 2009 91 SI MM BERNARD 2008-11-14 03:00:00 TS -7.90743 84.5925 main 1608 1605 _____P________ -1 -7.90743 84.5925 2 20 1005 4 243
2008319S07086 2009 91 SI MM BERNARD 2008-11-14 06:00:00 TS -8.00000 84.4000 20 1005 reunion main 1613 1610 _____O________ -1 -8.00000 84.4000 2 20 1005 1.50000 1.50000 9 5 247
2008319S07086 2009 91 SI MM BERNARD 2008-11-14 09:00:00 TS -8.09995 84.1375 main 1616 1613 _____P________ -1 -8.09995 84.1375 2 20 1005 6 251
2008319S07086 2009 91 SI MM BERNARD 2008-11-14 12:00:00 TS -8.20000 83.8000 20 1005 reunion main 1619 1614 _____O________ -1 -8.20000 83.8000 2 20 1005 1.00000 1.50000 9 8 256
2008319S07086 2009 91 SI MM BERNARD 2008-11-14 15:00:00 TS -8.29252 83.3725 main 1621 1615 _____P________ -1 -8.29252 83.3725 2 20 1005 9 257
2008319S07086 2009 91 SI MM BERNARD 2008-11-14 18:00:00 TS -8.40000 82.9000 20 1005 reunion main 1622 1620 _____O________ -1 -8.40000 82.9000 2 20 1005 1.00000 1.50000 9 9 254
2008319S07086 2009 91 SI MM BERNARD 2008-11-14 21:00:00 TS -8.54983 82.4800 main 1627 1627 _____P________ -1 -8.54983 82.4800 2 20 1005 9 251
2008319S07086 2009 91 SI MM BERNARD 2008-11-15 00:00:00 TS -8.70000 82.0000 20 1005 reunion main 1643 1641 _____O________ -1 -8.70000 82.0000 2 20 1005 1.50000 1.50000 9 12 257
2008319S07086 2009 91 SI MM BERNARD 2008-11-15 03:00:00 TS -8.81517 81.3500 main 1649 1648 _____P________ -1 -8.81517 81.3500 2 20 1005 13 261
2008319S07086 2009 91 SI MM BERNARD 2008-11-15 06:00:00 TS -8.90000 80.7000 20 1005 reunion main 1658 1658 _____O________ -1 -8.90000 80.7000 2 20 1005 1.50000 1.50000 9 12 263
2008319S07086 2009 91 SI MM BERNARD 2008-11-15 09:00:00 TS -8.95744 80.1750 main 1670 1670 _____P________ -1 -8.95744 80.1750 2 20 1005 9 264
2008319S07086 2009 91 SI MM BERNARD 2008-11-15 12:00:00 TS -9.00000 79.8000 20 1005 reunion main 1671 1671 _____O________ -1 -9.00000 79.8000 2 20 1005 1.50000 1.50000 9 6 261
2008319S07086 2009 91 SI MM BERNARD 2008-11-15 15:00:00 TS -9.04989 79.6125 main 1673 1673 _____P________ -1 -9.04989 79.6125 2 20 1005 3 251
2008319S07086 2009 91 SI MM BERNARD 2008-11-15 18:00:00 TS -9.10000 79.5000 20 1005 reunion main 1685 1685 _____O________ -1 -9.10000 79.5000 2 20 1005 1.00000 1.50000 9 3 251
2008319S07086 2009 91 SI MM BERNARD 2008-11-15 21:00:00 TS -9.15751 79.3000 main 1698 1698 _____P________ -1 -9.15751 79.3000 2 20 1005 4 256
2008319S07086 2009 91 SI MM BERNARD 2008-11-16 00:00:00 TS -9.20000 79.1000 20 1005 reunion main 1700 1700 _____O________ -1 -9.20000 79.1000 2 20 1005 1.00000 1.50000 9 4 262
2008319S07086 2009 91 SI MM BERNARD 2008-11-16 03:00:00 TS -9.20748 78.9425 main 1702 1702 _____P________ -1 -9.20748 78.9425 2 20 1005 3 270
2008319S07086 2009 91 SI MM BERNARD 2008-11-16 06:00:00 TS -9.20000 78.8000 20 1006 reunion main 1703 1703 _____O________ -1 -9.20000 78.8000 2 20 1006 1.00000 1.00000 9 3 270
2008319S07086 2009 91 SI MM BERNARD 2008-11-16 09:00:00 TS -9.20750 78.6425 main 1706 1706 _____P________ -1 -9.20750 78.6425 2 20 1006 3 270
2008319S07086 2009 91 SI MM BERNARD 2008-11-16 12:00:00 TS -9.20000 78.5000 20 1006 reunion main 1707 1707 _____O________ -1 -9.20000 78.5000 2 20 1006 1.00000 1.00000 9 3 280
2008319S07086 2009 91 SI MM BERNARD 2008-11-16 15:00:00 TS -9.16500 78.3850 main 1709 1698 _____P________ -1 -9.16500 78.3850 2 20 1006 2 297
2008319S07086 2009 91 SI MM BERNARD 2008-11-16 18:00:00 TS -9.10000 78.3000 20 1006 reunion main 1700 1688 _____O________ -1 -9.10000 78.3000 2 20 1006 1.00000 1.00000 9 2 323
2008319S07086 2009 91 SI MM BERNARD 2008-11-16 21:00:00 TS -8.99249 78.2500 main 1688 1679 _____P________ -1 -8.99249 78.2500 2 20 1006 2 333
2008319S07086 2009 91 SI MM BERNARD 2008-11-17 00:00:00 TS -8.90000 78.2000 20 1006 reunion main 1679 1679 _____O________ -1 -8.90000 78.2000 2 20 1006 1.00000 1.00000 9 2 308
2008319S07086 2009 91 SI MM BERNARD 2008-11-17 03:00:00 TS -8.87751 78.1000 main 1681 1681 _____P________ -1 -8.87751 78.1000 2 20 1006 2 270
2008319S07086 2009 91 SI MM BERNARD 2008-11-17 06:00:00 TS -8.90000 78.0000 20 1006 reunion main 1683 1683 _____O________ -1 -8.90000 78.0000 2 20 1006 1.00000 1.00000 9 2 249
2008319S07086 2009 91 SI MM BERNARD 2008-11-17 09:00:00 TS -8.93499 77.9500 main 1683 1685 _____P________ -1 -8.93499 77.9500 2 20 1006 1 223
2008319S07086 2009 91 SI MM BERNARD 2008-11-17 12:00:00 TS -9.00000 77.9000 20 1006 reunion main 1696 1696 _____O________ -1 -9.00000 77.9000 2 20 1006 1.00000 1.00000 9 2 223
2008319S07086 2009 91 SI MM BERNARD 2008-11-17 15:00:00 TS -9.09251 77.8000 main 1709 1709 _____P________ -1 -9.09251 77.8000 2 20 1006 3 225
2008319S07086 2009 91 SI MM BERNARD 2008-11-17 18:00:00 TS -9.20000 77.7000 20 1006 reunion main 1722 1722 _____O________ -1 -9.20000 77.7000 2 20 1006 1.00000 1.00000 9 3 217
2008319S07086 2009 91 SI MM BERNARD 2008-11-17 21:00:00 TS -9.29999 77.6425 main 1735 1733 _____P________ -1 -9.29999 77.6425 2 20 1005 1 0
2008319S07086 2009 91 SI MM BERNARD 2008-11-18 00:00:00 TS -9.28000 77.6800 20 1005 reunion main 1733 1733 O____O________ jtwc_sh SH032009 -8.80000 78.0000 DB 20 1007 -3 -9.40000 77.6000 2 20 1005 1.50000 1.50000 9 1 196
2008319S07086 2009 91 SI MM BERNARD 2008-11-18 03:00:00 TS -9.36584 77.6250 main 1746 1746 P____P________ SH032009 -9.06751 77.8050 DB 20 1007 -3 -9.51500 77.5350 2 20 1004 2 215
2008319S07086 2009 91 SI MM BERNARD 2008-11-18 06:00:00 TS -9.47143 77.5429 20 1004 reunion main 1759 1759 O____O________ jtwc_sh SH032009 -9.30000 77.6000 DB 20 1007 -3 -9.60000 77.5000 2 20 1004 1.50000 1.50000 9 2 222
2008319S07086 2009 91 SI MM BERNARD 2008-11-18 09:00:00 TS -9.54374 77.4588 main 1759 1759 P____P________ SH032009 -9.47250 77.3975 DB 20 1007 -3 -9.61499 77.5200 2 22 1003 2 216
2008319S07086 2009 91 SI MM BERNARD 2008-11-18 12:00:00 TS -9.60000 77.4500 25 1002 reunion main 1770 1770 O____O________ jtwc_sh SH032009 -9.60000 77.3000 DB 20 1007 -3 -9.60000 77.6000 2 25 1002 2.00000 2.00000 9 2 136
2008319S07086 2009 91 SI MM BERNARD 2008-11-18 15:00:00 TS -9.66126 77.5737 main 1779 1777 P____P________ SH032009 -9.71502 77.4125 DB 20 1007 -3 -9.60751 77.7350 2 25 1002 3 109
2008319S07086 2009 91 SI MM BERNARD 2008-11-18 18:00:00 TS -9.70000 77.7500 25 1002 reunion main 1775 1773 O____O________ jtwc_sh SH032009 -9.80000 77.6000 DB 20 1007 -3 -9.60000 77.9000 2 25 1002 2.00000 2.00000 9 3 100
2008319S07086 2009 91 SI MM BERNARD 2008-11-18 21:00:00 TS -9.71122 77.8638 main 1773 1771 P____P________ SH032009 -9.86497 77.6925 DB 22 1005 -3 -9.55747 78.0350 2 26 1001 2 90
2008319S07086 2009 91 SI MM BERNARD 2008-11-19 00:00:00 TS -9.70000 78.0000 27 1000 reunion main 1771 1768 O____O________ jtwc_sh SH032009 -9.90000 77.8000 TD 25 1004 -1 -9.50000 78.2000 2 27 1000 2.00000 2.00000 9 3 84
2008319S07086 2009 91 SI MM BERNARD 2008-11-19 03:00:00 TS -9.67867 78.1762 main 1768 1764 P____P________ SH032009 -9.92238 77.9400 TD 27 1002 -1 -9.43495 78.4125 2 28 999 4 84
2008319S07086 2009 91 SI MM BERNARD 2008-11-19 06:00:00 TS -9.65000 78.4500 30 998 reunion main 1752 1748 O____O________ jtwc_sh SH032009 -9.90000 78.2000 TD 30 1000 -1 1005 120 45 -9.40000 78.7000 2 30 998 2.50000 2.50000 9 6 85
2008319S07086 2009 91 SI MM BERNARD 2008-11-19 09:00:00 TS -9.62856 78.8212 main 1748 1742 P____P________ SH032009 -9.82218 78.5875 TD 30 1000 -1 1005 120 45 -9.43493 79.0550 2 30 997 9 87
2008319S07086 2009 91 SI MM BERNARD 2008-11-19 12:00:00 TS -9.60000 79.3500 30 997 reunion main 1741 1726 O____O________ jtwc_sh SH032009 -9.70000 79.2000 TD 30 1000 -1 1005 120 45 -9.50000 79.5000 2 30 997 2.50000 2.50000 18 26 48 43 37 9 12 85
2008319S07086 2009 91 SI MM BERNARD 2008-11-19 15:00:00 TS -9.53117 80.0253 main 1726 1725 P____P________ SH032009 -9.49014 80.0757 TD 32 998 -1 1005 120 45 -9.57220 79.9749 2 31 996 17 31 45 40 34 15 86
2008319S07086 2009 91 SI MM BERNARD 2008-11-19 18:00:00 TS -9.50000 80.8500 33 996 reunion main 1725 1725 O____O________ jtwc_sh SH032009 -9.40000 81.1000 TS 35 996 0 1005 120 45 -9.60000 80.6000 2 33 996 2.50000 2.50000 16 37 43 37 32 9 17 91
2008319S07086 2009 91 SI MM BERNARD 2008-11-19 21:00:00 TS -9.56956 81.7288 main 1741 1741 P____P________ SH032009 -9.63919 82.0323 TS 37 994 0 1005 120 30 -9.49993 81.4254 2 34 995 16 42 43 34 29 19 96
2008319S07086 2009 91 SI MM BERNARD 2008-11-20 00:00:00 TS -9.70000 82.7500 35 995 reunion main 1764 1763 O____O________ jtwc_sh SH032009 -10.0000 83.1000 TS 40 993 0 25 25 25 25 1005 120 15 -9.40000 82.4000 3 35 995 2.50000 2.50000 16 48 43 32 26 9 22 97
2008319S07086 2009 91 SI MM BERNARD 2008-11-20 03:00:00 TS -9.84269 83.9487 main 1796 1791 P____P________ SH032009 -10.2735 84.5223 TS 40 993 0 35 32 32 35 1006 137 27 -9.41186 83.3752 3 35 995 16 42 45 34 26 23 96
2008319S07086 2009 91 SI MM BERNARD 2008-11-20 06:00:00 TS -9.92857 85.1000 35 995 reunion main 1781 1684 O____O________ jtwc_sh SH032009 -10.5000 85.9000 TS 40 993 0 45 40 40 45 1008 155 40 -9.50000 84.5000 3 35 995 2.50000 2.50000 16 37 48 37 26 9 23 94
2008319S07086 2009 91 SI MM BERNARD 2008-11-20 09:00:00 TS -9.98440 86.2315 main 1684 1584 P____P________ SH032009 -10.6669 86.8800 TS 37 994 0 37 35 37 40 1008 155 35 -9.64318 85.9072 3 32 996 18 64 45 13 22 92
2008319S07086 2009 91 SI MM BERNARD 2008-11-20 12:00:00 TS -10.0000 87.3600 30 997 reunion main 1575 1481 O____O________ jtwc_sh SH032009 -10.8000 87.6000 TS 35 996 0 30 30 35 35 1008 155 30 -9.80000 87.3000 2 30 997 2.00000 2.50000 0 80 53 0 9 22 89
2008319S07086 2009 91 SI MM BERNARD 2008-11-20 15:00:00 TS -9.94454 88.4197 main 1481 1411 _____P________ SH032009 TS -1 -9.94454 88.4197 2 27 998 19 90
2008319S07086 2009 91 SI MM BERNARD 2008-11-20 18:00:00 TS -10.0000 89.3000 25 1000 reunion main 1411 1354 _____O________ -1 -10.0000 89.3000 6 25 1000 1.50000 2.00000 9 15 88
2008319S07086 2009 91 SI MM BERNARD 2008-11-20 21:00:00 TS -9.89767 89.9603 main 1346 1291 _____P________ -1 -9.89767 89.9603 6 22 1002 12 76
2008319S07086 2009 91 SI WA BERNARD 2008-11-21 00:00:00 TS -9.70000 90.5000 main 1291 _____O________ -1 -9.70000 90.5000 6 20 1004 1.00000 1.50000 9 11 70

IBTrACS Databaseについて

本データベースは、米国NOAAが公開する1842年以降の世界の熱帯低気圧のベストトラックデータアーカイブInternational Best Track Archive for Climate Stewardship (IBTrACS)を、ウェブで閲覧しやすい形式に変換したものです。

最終更新日:2021-10-21